sensor_id;sensor_type;location;lat;lon;timestamp;P1;durP1;ratioP1;P2;durP2;ratioP2
76113;SDS011;64845;53.086;5.834;2023-05-08T00:00:18;18.63;;;11.68;;
76113;SDS011;64845;53.086;5.834;2023-05-08T00:02:44;14.23;;;12.32;;
76113;SDS011;64845;53.086;5.834;2023-05-08T00:05:09;15.30;;;12.55;;
76113;SDS011;64845;53.086;5.834;2023-05-08T00:07:35;13.95;;;11.95;;
76113;SDS011;64845;53.086;5.834;2023-05-08T00:10:01;13.95;;;12.18;;
76113;SDS011;64845;53.086;5.834;2023-05-08T00:12:28;13.30;;;11.95;;
76113;SDS011;64845;53.086;5.834;2023-05-08T00:14:53;17.25;;;12.65;;
76113;SDS011;64845;53.086;5.834;2023-05-08T00:17:22;13.75;;;12.30;;
76113;SDS011;64845;53.086;5.834;2023-05-08T00:19:47;13.35;;;11.95;;
76113;SDS011;64845;53.086;5.834;2023-05-08T00:22:12;15.07;;;12.50;;
76113;SDS011;64845;53.086;5.834;2023-05-08T00:24:38;18.15;;;12.15;;
76113;SDS011;64845;53.086;5.834;2023-05-08T00:27:03;16.17;;;12.48;;
76113;SDS011;64845;53.086;5.834;2023-05-08T00:29:29;14.75;;;11.90;;
76113;SDS011;64845;53.086;5.834;2023-05-08T00:31:54;14.13;;;11.73;;
76113;SDS011;64845;53.086;5.834;2023-05-08T00:34:20;16.00;;;12.48;;
76113;SDS011;64845;53.086;5.834;2023-05-08T00:36:45;17.55;;;12.63;;
76113;SDS011;64845;53.086;5.834;2023-05-08T00:39:11;15.10;;;12.20;;
76113;SDS011;64845;53.086;5.834;2023-05-08T00:41:36;14.30;;;12.80;;
76113;SDS011;64845;53.086;5.834;2023-05-08T00:44:02;13.00;;;11.70;;
76113;SDS011;64845;53.086;5.834;2023-05-08T00:46:27;15.25;;;12.82;;
76113;SDS011;64845;53.086;5.834;2023-05-08T00:48:52;15.90;;;12.55;;
76113;SDS011;64845;53.086;5.834;2023-05-08T00:51:18;14.20;;;12.13;;
76113;SDS011;64845;53.086;5.834;2023-05-08T00:53:44;13.65;;;12.25;;
76113;SDS011;64845;53.086;5.834;2023-05-08T00:56:11;17.50;;;12.88;;
76113;SDS011;64845;53.086;5.834;2023-05-08T00:58:38;14.52;;;12.20;;
76113;SDS011;64845;53.086;5.834;2023-05-08T01:01:04;14.77;;;12.43;;
76113;SDS011;64845;53.086;5.834;2023-05-08T01:03:31;19.88;;;12.98;;
76113;SDS011;64845;53.086;5.834;2023-05-08T01:06:00;17.40;;;12.70;;
76113;SDS011;64845;53.086;5.834;2023-05-08T01:08:26;16.30;;;12.98;;
76113;SDS011;64845;53.086;5.834;2023-05-08T01:11:09;14.73;;;12.95;;
76113;SDS011;64845;53.086;5.834;2023-05-08T01:14:16;14.48;;;12.60;;
76113;SDS011;64845;53.086;5.834;2023-05-08T01:21:56;16.10;;;12.88;;
76113;SDS011;64845;53.086;5.834;2023-05-08T01:32:59;15.73;;;13.13;;
76113;SDS011;64845;53.086;5.834;2023-05-08T01:35:33;17.50;;;13.27;;
76113;SDS011;64845;53.086;5.834;2023-05-08T01:38:26;15.95;;;12.93;;
76113;SDS011;64845;53.086;5.834;2023-05-08T01:46:39;16.50;;;13.23;;
76113;SDS011;64845;53.086;5.834;2023-05-08T01:51:40;16.30;;;13.85;;
76113;SDS011;64845;53.086;5.834;2023-05-08T01:54:10;17.60;;;13.18;;
76113;SDS011;64845;53.086;5.834;2023-05-08T01:56:39;17.48;;;13.40;;
76113;SDS011;64845;53.086;5.834;2023-05-08T01:59:07;15.77;;;13.68;;
76113;SDS011;64845;53.086;5.834;2023-05-08T02:01:36;21.98;;;13.85;;
76113;SDS011;64845;53.086;5.834;2023-05-08T02:04:04;16.38;;;13.85;;
76113;SDS011;64845;53.086;5.834;2023-05-08T02:06:31;16.50;;;13.85;;
76113;SDS011;64845;53.086;5.834;2023-05-08T02:08:58;16.42;;;13.43;;
76113;SDS011;64845;53.086;5.834;2023-05-08T02:11:25;18.77;;;14.32;;
76113;SDS011;64845;53.086;5.834;2023-05-08T02:13:53;15.50;;;12.95;;
76113;SDS011;64845;53.086;5.834;2023-05-08T02:16:21;15.55;;;12.88;;
76113;SDS011;64845;53.086;5.834;2023-05-08T02:18:50;19.55;;;13.75;;
76113;SDS011;64845;53.086;5.834;2023-05-08T02:21:16;16.00;;;13.98;;
76113;SDS011;64845;53.086;5.834;2023-05-08T02:23:43;16.75;;;14.60;;
76113;SDS011;64845;53.086;5.834;2023-05-08T02:26:11;16.50;;;14.65;;
76113;SDS011;64845;53.086;5.834;2023-05-08T02:28:39;19.00;;;14.23;;
76113;SDS011;64845;53.086;5.834;2023-05-08T02:31:06;19.80;;;14.32;;
76113;SDS011;64845;53.086;5.834;2023-05-08T02:33:34;15.88;;;14.02;;
76113;SDS011;64845;53.086;5.834;2023-05-08T02:36:02;18.30;;;14.73;;
76113;SDS011;64845;53.086;5.834;2023-05-08T02:38:28;18.92;;;14.68;;
76113;SDS011;64845;53.086;5.834;2023-05-08T02:40:54;19.30;;;14.88;;
76113;SDS011;64845;53.086;5.834;2023-05-08T02:43:22;18.83;;;15.40;;
76113;SDS011;64845;53.086;5.834;2023-05-08T02:45:48;18.65;;;14.38;;
76113;SDS011;64845;53.086;5.834;2023-05-08T02:51:13;19.92;;;14.95;;
76113;SDS011;64845;53.086;5.834;2023-05-08T02:53:53;18.35;;;14.68;;
76113;SDS011;64845;53.086;5.834;2023-05-08T02:59:09;16.77;;;14.55;;
76113;SDS011;64845;53.086;5.834;2023-05-08T03:01:44;19.38;;;14.75;;
76113;SDS011;64845;53.086;5.834;2023-05-08T03:04:18;20.23;;;15.40;;
76113;SDS011;64845;53.086;5.834;2023-05-08T03:06:50;18.40;;;14.50;;
76113;SDS011;64845;53.086;5.834;2023-05-08T03:09:19;21.17;;;14.63;;
76113;SDS011;64845;53.086;5.834;2023-05-08T03:11:48;19.38;;;15.27;;
76113;SDS011;64845;53.086;5.834;2023-05-08T03:14:18;17.42;;;14.55;;
76113;SDS011;64845;53.086;5.834;2023-05-08T03:16:46;17.20;;;14.45;;
76113;SDS011;64845;53.086;5.834;2023-05-08T03:19:23;22.60;;;15.00;;
76113;SDS011;64845;53.086;5.834;2023-05-08T03:21:54;16.33;;;13.63;;
76113;SDS011;64845;53.086;5.834;2023-05-08T03:24:21;19.67;;;14.90;;
76113;SDS011;64845;53.086;5.834;2023-05-08T03:26:49;20.33;;;15.07;;
76113;SDS011;64845;53.086;5.834;2023-05-08T03:29:15;17.35;;;14.52;;
76113;SDS011;64845;53.086;5.834;2023-05-08T03:31:42;20.92;;;15.63;;
76113;SDS011;64845;53.086;5.834;2023-05-08T03:34:09;17.30;;;14.70;;
76113;SDS011;64845;53.086;5.834;2023-05-08T03:36:36;15.77;;;14.10;;
76113;SDS011;64845;53.086;5.834;2023-05-08T03:39:02;18.10;;;14.98;;
76113;SDS011;64845;53.086;5.834;2023-05-08T03:41:28;19.80;;;15.75;;
76113;SDS011;64845;53.086;5.834;2023-05-08T03:43:53;18.38;;;15.52;;
76113;SDS011;64845;53.086;5.834;2023-05-08T03:46:20;20.35;;;14.85;;
76113;SDS011;64845;53.086;5.834;2023-05-08T03:48:46;16.55;;;14.75;;
76113;SDS011;64845;53.086;5.834;2023-05-08T03:51:14;17.52;;;14.57;;
76113;SDS011;64845;53.086;5.834;2023-05-08T03:53:40;18.65;;;14.40;;
76113;SDS011;64845;53.086;5.834;2023-05-08T03:56:05;22.98;;;15.38;;
76113;SDS011;64845;53.086;5.834;2023-05-08T03:58:37;17.73;;;14.85;;
76113;SDS011;64845;53.086;5.834;2023-05-08T04:01:16;17.27;;;14.75;;
76113;SDS011;64845;53.086;5.834;2023-05-08T04:06:30;20.38;;;15.40;;
76113;SDS011;64845;53.086;5.834;2023-05-08T04:09:09;17.73;;;14.30;;
76113;SDS011;64845;53.086;5.834;2023-05-08T04:11:43;18.85;;;15.00;;
76113;SDS011;64845;53.086;5.834;2023-05-08T04:14:18;16.80;;;14.70;;
76113;SDS011;64845;53.086;5.834;2023-05-08T04:16:51;19.83;;;15.00;;
76113;SDS011;64845;53.086;5.834;2023-05-08T04:19:23;17.83;;;15.02;;
76113;SDS011;64845;53.086;5.834;2023-05-08T04:21:53;17.58;;;15.40;;
76113;SDS011;64845;53.086;5.834;2023-05-08T04:24:23;18.15;;;15.07;;
76113;SDS011;64845;53.086;5.834;2023-05-08T04:26:51;19.80;;;14.00;;
76113;SDS011;64845;53.086;5.834;2023-05-08T04:29:17;17.95;;;14.82;;
76113;SDS011;64845;53.086;5.834;2023-05-08T04:31:44;20.85;;;15.02;;
76113;SDS011;64845;53.086;5.834;2023-05-08T04:34:09;17.77;;;15.18;;
76113;SDS011;64845;53.086;5.834;2023-05-08T04:36:36;17.10;;;13.10;;
76113;SDS011;64845;53.086;5.834;2023-05-08T04:39:01;16.80;;;14.20;;
76113;SDS011;64845;53.086;5.834;2023-05-08T04:41:27;18.38;;;14.70;;
76113;SDS011;64845;53.086;5.834;2023-05-08T04:43:52;18.05;;;14.27;;
76113;SDS011;64845;53.086;5.834;2023-05-08T04:46:18;18.42;;;15.13;;
76113;SDS011;64845;53.086;5.834;2023-05-08T04:48:43;18.40;;;14.70;;
76113;SDS011;64845;53.086;5.834;2023-05-08T04:51:09;18.23;;;14.85;;
76113;SDS011;64845;53.086;5.834;2023-05-08T04:53:34;19.90;;;15.38;;
76113;SDS011;64845;53.086;5.834;2023-05-08T04:56:00;17.48;;;14.82;;
76113;SDS011;64845;53.086;5.834;2023-05-08T04:58:25;19.40;;;15.75;;
76113;SDS011;64845;53.086;5.834;2023-05-08T05:00:50;18.75;;;14.68;;
76113;SDS011;64845;53.086;5.834;2023-05-08T05:03:16;18.42;;;15.15;;
76113;SDS011;64845;53.086;5.834;2023-05-08T05:05:41;17.77;;;14.13;;
76113;SDS011;64845;53.086;5.834;2023-05-08T05:08:07;15.73;;;13.80;;
76113;SDS011;64845;53.086;5.834;2023-05-08T05:10:32;19.67;;;14.23;;
76113;SDS011;64845;53.086;5.834;2023-05-08T05:12:57;17.55;;;14.70;;
76113;SDS011;64845;53.086;5.834;2023-05-08T05:15:23;17.48;;;14.43;;
76113;SDS011;64845;53.086;5.834;2023-05-08T05:17:48;19.17;;;14.27;;
76113;SDS011;64845;53.086;5.834;2023-05-08T05:20:13;17.52;;;14.70;;
76113;SDS011;64845;53.086;5.834;2023-05-08T05:22:39;15.80;;;14.10;;
76113;SDS011;64845;53.086;5.834;2023-05-08T05:25:04;17.38;;;14.32;;
76113;SDS011;64845;53.086;5.834;2023-05-08T05:27:33;16.55;;;14.13;;
76113;SDS011;64845;53.086;5.834;2023-05-08T05:29:59;15.70;;;13.38;;
76113;SDS011;64845;53.086;5.834;2023-05-08T05:32:24;18.05;;;14.80;;
76113;SDS011;64845;53.086;5.834;2023-05-08T05:34:50;17.90;;;14.73;;
76113;SDS011;64845;53.086;5.834;2023-05-08T05:37:16;17.90;;;14.02;;
76113;SDS011;64845;53.086;5.834;2023-05-08T05:39:42;16.05;;;13.88;;
76113;SDS011;64845;53.086;5.834;2023-05-08T05:42:07;17.02;;;13.82;;
76113;SDS011;64845;53.086;5.834;2023-05-08T05:44:32;15.52;;;13.77;;
76113;SDS011;64845;53.086;5.834;2023-05-08T05:46:58;18.13;;;14.05;;
76113;SDS011;64845;53.086;5.834;2023-05-08T05:49:23;17.23;;;13.60;;
76113;SDS011;64845;53.086;5.834;2023-05-08T05:51:48;15.27;;;12.50;;
76113;SDS011;64845;53.086;5.834;2023-05-08T05:54:14;14.98;;;12.05;;
76113;SDS011;64845;53.086;5.834;2023-05-08T05:56:39;18.42;;;12.82;;
76113;SDS011;64845;53.086;5.834;2023-05-08T05:59:04;17.88;;;14.25;;
76113;SDS011;64845;53.086;5.834;2023-05-08T06:01:30;18.30;;;13.52;;
76113;SDS011;64845;53.086;5.834;2023-05-08T06:03:57;15.90;;;13.00;;
76113;SDS011;64845;53.086;5.834;2023-05-08T06:06:22;15.77;;;13.77;;
76113;SDS011;64845;53.086;5.834;2023-05-08T06:08:48;19.23;;;13.10;;
76113;SDS011;64845;53.086;5.834;2023-05-08T06:11:14;17.13;;;14.07;;
76113;SDS011;64845;53.086;5.834;2023-05-08T06:13:39;16.13;;;13.65;;
76113;SDS011;64845;53.086;5.834;2023-05-08T06:16:06;19.02;;;14.15;;
76113;SDS011;64845;53.086;5.834;2023-05-08T06:18:32;15.45;;;13.85;;
76113;SDS011;64845;53.086;5.834;2023-05-08T06:20:57;16.70;;;13.85;;
76113;SDS011;64845;53.086;5.834;2023-05-08T06:23:24;15.30;;;13.18;;
76113;SDS011;64845;53.086;5.834;2023-05-08T06:25:50;17.80;;;13.93;;
76113;SDS011;64845;53.086;5.834;2023-05-08T06:28:15;17.52;;;13.02;;
76113;SDS011;64845;53.086;5.834;2023-05-08T06:30:40;18.38;;;13.65;;
76113;SDS011;64845;53.086;5.834;2023-05-08T06:33:07;17.95;;;12.82;;
76113;SDS011;64845;53.086;5.834;2023-05-08T06:35:33;18.83;;;13.90;;
76113;SDS011;64845;53.086;5.834;2023-05-08T06:37:58;16.30;;;14.32;;
76113;SDS011;64845;53.086;5.834;2023-05-08T06:40:24;14.75;;;13.25;;
76113;SDS011;64845;53.086;5.834;2023-05-08T06:42:49;15.45;;;13.55;;
76113;SDS011;64845;53.086;5.834;2023-05-08T06:45:14;15.50;;;13.38;;
76113;SDS011;64845;53.086;5.834;2023-05-08T06:47:40;16.27;;;12.98;;
76113;SDS011;64845;53.086;5.834;2023-05-08T06:50:05;17.63;;;13.50;;
76113;SDS011;64845;53.086;5.834;2023-05-08T06:52:31;16.05;;;12.88;;
76113;SDS011;64845;53.086;5.834;2023-05-08T06:54:57;15.05;;;12.50;;
76113;SDS011;64845;53.086;5.834;2023-05-08T06:57:22;15.38;;;12.93;;
76113;SDS011;64845;53.086;5.834;2023-05-08T06:59:50;15.65;;;13.25;;
76113;SDS011;64845;53.086;5.834;2023-05-08T07:02:16;16.75;;;13.63;;
76113;SDS011;64845;53.086;5.834;2023-05-08T07:04:42;14.65;;;12.65;;
76113;SDS011;64845;53.086;5.834;2023-05-08T07:07:08;14.52;;;12.65;;
76113;SDS011;64845;53.086;5.834;2023-05-08T07:09:33;14.18;;;12.48;;
76113;SDS011;64845;53.086;5.834;2023-05-08T07:11:59;14.13;;;12.63;;
76113;SDS011;64845;53.086;5.834;2023-05-08T07:14:24;13.90;;;12.38;;
76113;SDS011;64845;53.086;5.834;2023-05-08T07:16:49;14.95;;;12.32;;
76113;SDS011;64845;53.086;5.834;2023-05-08T07:19:15;17.83;;;12.98;;
76113;SDS011;64845;53.086;5.834;2023-05-08T07:21:40;16.38;;;13.27;;
76113;SDS011;64845;53.086;5.834;2023-05-08T07:24:05;14.73;;;12.93;;
76113;SDS011;64845;53.086;5.834;2023-05-08T07:26:31;14.13;;;12.57;;
76113;SDS011;64845;53.086;5.834;2023-05-08T07:28:56;17.67;;;13.05;;
76113;SDS011;64845;53.086;5.834;2023-05-08T07:31:22;14.10;;;12.60;;
76113;SDS011;64845;53.086;5.834;2023-05-08T07:33:47;14.82;;;12.73;;
76113;SDS011;64845;53.086;5.834;2023-05-08T07:36:12;17.85;;;13.30;;
76113;SDS011;64845;53.086;5.834;2023-05-08T07:38:38;16.52;;;13.25;;
76113;SDS011;64845;53.086;5.834;2023-05-08T07:41:04;14.63;;;13.10;;
76113;SDS011;64845;53.086;5.834;2023-05-08T07:43:29;15.85;;;13.27;;
76113;SDS011;64845;53.086;5.834;2023-05-08T07:45:55;14.65;;;13.00;;
76113;SDS011;64845;53.086;5.834;2023-05-08T07:48:21;15.63;;;13.20;;
76113;SDS011;64845;53.086;5.834;2023-05-08T07:50:47;17.33;;;12.98;;
76113;SDS011;64845;53.086;5.834;2023-05-08T07:53:13;14.77;;;13.15;;
76113;SDS011;64845;53.086;5.834;2023-05-08T07:55:39;15.88;;;13.50;;
76113;SDS011;64845;53.086;5.834;2023-05-08T07:58:04;14.10;;;12.55;;
76113;SDS011;64845;53.086;5.834;2023-05-08T08:00:30;14.00;;;12.35;;
76113;SDS011;64845;53.086;5.834;2023-05-08T08:02:56;15.20;;;12.50;;
76113;SDS011;64845;53.086;5.834;2023-05-08T08:05:21;15.05;;;13.50;;
76113;SDS011;64845;53.086;5.834;2023-05-08T08:07:47;16.35;;;13.63;;
76113;SDS011;64845;53.086;5.834;2023-05-08T08:10:13;15.73;;;13.70;;
76113;SDS011;64845;53.086;5.834;2023-05-08T08:12:38;15.48;;;13.48;;
76113;SDS011;64845;53.086;5.834;2023-05-08T08:15:04;15.52;;;13.63;;
76113;SDS011;64845;53.086;5.834;2023-05-08T08:17:30;21.27;;;13.77;;
76113;SDS011;64845;53.086;5.834;2023-05-08T08:19:55;15.85;;;13.90;;
76113;SDS011;64845;53.086;5.834;2023-05-08T08:22:21;15.98;;;14.13;;
76113;SDS011;64845;53.086;5.834;2023-05-08T08:24:46;15.93;;;13.57;;
76113;SDS011;64845;53.086;5.834;2023-05-08T08:27:12;15.65;;;13.82;;
76113;SDS011;64845;53.086;5.834;2023-05-08T08:29:37;15.48;;;13.93;;
76113;SDS011;64845;53.086;5.834;2023-05-08T08:32:03;17.00;;;13.15;;
76113;SDS011;64845;53.086;5.834;2023-05-08T08:34:28;16.95;;;13.88;;
76113;SDS011;64845;53.086;5.834;2023-05-08T08:36:54;16.30;;;13.88;;
76113;SDS011;64845;53.086;5.834;2023-05-08T08:39:19;16.42;;;13.00;;
76113;SDS011;64845;53.086;5.834;2023-05-08T08:41:45;15.20;;;13.60;;
76113;SDS011;64845;53.086;5.834;2023-05-08T08:44:11;19.67;;;13.68;;
76113;SDS011;64845;53.086;5.834;2023-05-08T08:46:38;14.73;;;12.82;;
76113;SDS011;64845;53.086;5.834;2023-05-08T08:49:07;16.25;;;13.95;;
76113;SDS011;64845;53.086;5.834;2023-05-08T08:54:44;19.50;;;14.27;;
76113;SDS011;64845;53.086;5.834;2023-05-08T08:57:11;17.42;;;13.82;;
76113;SDS011;64845;53.086;5.834;2023-05-08T08:59:37;16.63;;;14.48;;
76113;SDS011;64845;53.086;5.834;2023-05-08T09:02:05;15.90;;;14.18;;
76113;SDS011;64845;53.086;5.834;2023-05-08T09:04:35;16.15;;;13.50;;
76113;SDS011;64845;53.086;5.834;2023-05-08T09:07:01;15.25;;;13.65;;
76113;SDS011;64845;53.086;5.834;2023-05-08T09:09:29;16.58;;;14.73;;
76113;SDS011;64845;53.086;5.834;2023-05-08T09:11:57;16.48;;;14.77;;
76113;SDS011;64845;53.086;5.834;2023-05-08T09:14:24;17.30;;;13.88;;
76113;SDS011;64845;53.086;5.834;2023-05-08T09:16:50;17.88;;;15.10;;
76113;SDS011;64845;53.086;5.834;2023-05-08T09:19:17;15.60;;;13.75;;
76113;SDS011;64845;53.086;5.834;2023-05-08T09:21:43;16.85;;;15.05;;
76113;SDS011;64845;53.086;5.834;2023-05-08T09:24:09;17.20;;;15.05;;
76113;SDS011;64845;53.086;5.834;2023-05-08T09:26:35;16.85;;;14.35;;
76113;SDS011;64845;53.086;5.834;2023-05-08T09:29:07;18.42;;;14.90;;
76113;SDS011;64845;53.086;5.834;2023-05-08T10:21:46;26.13;;;18.70;;
76113;SDS011;64845;53.086;5.834;2023-05-08T10:24:19;24.60;;;17.80;;
76113;SDS011;64845;53.086;5.834;2023-05-08T10:29:32;25.35;;;18.42;;
76113;SDS011;64845;53.086;5.834;2023-05-08T10:32:06;20.60;;;17.15;;
76113;SDS011;64845;53.086;5.834;2023-05-08T10:34:34;20.38;;;18.23;;
76113;SDS011;64845;53.086;5.834;2023-05-08T10:37:04;20.02;;;17.80;;
76113;SDS011;64845;53.086;5.834;2023-05-08T10:39:33;20.10;;;18.00;;
76113;SDS011;64845;53.086;5.834;2023-05-08T10:42:00;24.70;;;17.58;;
76113;SDS011;64845;53.086;5.834;2023-05-08T10:44:25;23.67;;;18.17;;
76113;SDS011;64845;53.086;5.834;2023-05-08T10:47:00;22.08;;;17.77;;
76113;SDS011;64845;53.086;5.834;2023-05-08T10:49:51;24.42;;;18.92;;
76113;SDS011;64845;53.086;5.834;2023-05-08T10:52:36;24.58;;;18.83;;
76113;SDS011;64845;53.086;5.834;2023-05-08T11:05:44;21.35;;;17.80;;
76113;SDS011;64845;53.086;5.834;2023-05-08T11:08:15;24.27;;;19.88;;
76113;SDS011;64845;53.086;5.834;2023-05-08T11:10:47;21.67;;;19.30;;
76113;SDS011;64845;53.086;5.834;2023-05-08T11:13:17;21.63;;;19.00;;
76113;SDS011;64845;53.086;5.834;2023-05-08T11:15:50;26.33;;;18.75;;
76113;SDS011;64845;53.086;5.834;2023-05-08T11:18:15;21.00;;;18.80;;
76113;SDS011;64845;53.086;5.834;2023-05-08T11:20:43;23.33;;;18.55;;
76113;SDS011;64845;53.086;5.834;2023-05-08T11:23:20;23.67;;;18.48;;
76113;SDS011;64845;53.086;5.834;2023-05-08T11:25:46;23.05;;;18.38;;
76113;SDS011;64845;53.086;5.834;2023-05-08T11:28:12;20.38;;;18.15;;
76113;SDS011;64845;53.086;5.834;2023-05-08T11:30:42;21.92;;;19.15;;
76113;SDS011;64845;53.086;5.834;2023-05-08T11:40:59;20.98;;;18.70;;
76113;SDS011;64845;53.086;5.834;2023-05-08T11:46:12;22.38;;;19.60;;
76113;SDS011;64845;53.086;5.834;2023-05-08T11:48:38;22.67;;;20.05;;
76113;SDS011;64845;53.086;5.834;2023-05-08T11:51:04;23.65;;;20.60;;
76113;SDS011;64845;53.086;5.834;2023-05-08T11:53:30;25.60;;;20.85;;
76113;SDS011;64845;53.086;5.834;2023-05-08T11:55:56;22.73;;;20.15;;
76113;SDS011;64845;53.086;5.834;2023-05-08T11:58:22;29.15;;;21.55;;
76113;SDS011;64845;53.086;5.834;2023-05-08T12:00:48;25.77;;;20.55;;
76113;SDS011;64845;53.086;5.834;2023-05-08T12:03:14;24.98;;;20.15;;
76113;SDS011;64845;53.086;5.834;2023-05-08T12:05:41;25.70;;;21.33;;
76113;SDS011;64845;53.086;5.834;2023-05-08T12:08:07;26.13;;;21.48;;
76113;SDS011;64845;53.086;5.834;2023-05-08T12:10:40;24.77;;;20.63;;
76113;SDS011;64845;53.086;5.834;2023-05-08T12:13:16;25.92;;;21.45;;
76113;SDS011;64845;53.086;5.834;2023-05-08T12:16:01;24.80;;;22.08;;
76113;SDS011;64845;53.086;5.834;2023-05-08T12:18:27;27.65;;;21.73;;
76113;SDS011;64845;53.086;5.834;2023-05-08T12:20:57;25.80;;;21.20;;
76113;SDS011;64845;53.086;5.834;2023-05-08T12:23:25;25.92;;;21.88;;
76113;SDS011;64845;53.086;5.834;2023-05-08T12:25:51;27.92;;;21.95;;
76113;SDS011;64845;53.086;5.834;2023-05-08T12:28:20;29.08;;;22.52;;
76113;SDS011;64845;53.086;5.834;2023-05-08T12:30:46;26.15;;;23.13;;
76113;SDS011;64845;53.086;5.834;2023-05-08T12:33:11;36.70;;;24.17;;
76113;SDS011;64845;53.086;5.834;2023-05-08T12:35:40;27.70;;;23.63;;
76113;SDS011;64845;53.086;5.834;2023-05-08T12:38:06;26.85;;;22.38;;
76113;SDS011;64845;53.086;5.834;2023-05-08T12:40:42;30.50;;;23.58;;
76113;SDS011;64845;53.086;5.834;2023-05-08T12:43:09;30.52;;;24.58;;
76113;SDS011;64845;53.086;5.834;2023-05-08T12:45:36;27.38;;;23.95;;
76113;SDS011;64845;53.086;5.834;2023-05-08T12:50:36;33.15;;;25.42;;
76113;SDS011;64845;53.086;5.834;2023-05-08T12:53:07;35.45;;;26.92;;
76113;SDS011;64845;53.086;5.834;2023-05-08T12:55:35;34.83;;;27.73;;
76113;SDS011;64845;53.086;5.834;2023-05-08T12:58:05;30.85;;;26.52;;
76113;SDS011;64845;53.086;5.834;2023-05-08T13:00:44;34.05;;;26.60;;
76113;SDS011;64845;53.086;5.834;2023-05-08T13:03:12;32.88;;;27.25;;
76113;SDS011;64845;53.086;5.834;2023-05-08T13:05:45;34.85;;;28.83;;
76113;SDS011;64845;53.086;5.834;2023-05-08T13:08:10;36.20;;;29.08;;
76113;SDS011;64845;53.086;5.834;2023-05-08T13:10:54;36.78;;;29.30;;
76113;SDS011;64845;53.086;5.834;2023-05-08T13:13:21;43.33;;;30.50;;
76113;SDS011;64845;53.086;5.834;2023-05-08T13:15:47;42.15;;;31.08;;
76113;SDS011;64845;53.086;5.834;2023-05-08T13:18:14;37.45;;;30.65;;
76113;SDS011;64845;53.086;5.834;2023-05-08T13:20:40;39.05;;;31.63;;
76113;SDS011;64845;53.086;5.834;2023-05-08T13:23:06;40.97;;;31.92;;
76113;SDS011;64845;53.086;5.834;2023-05-08T13:25:32;40.92;;;33.53;;
76113;SDS011;64845;53.086;5.834;2023-05-08T13:27:59;40.17;;;33.40;;
76113;SDS011;64845;53.086;5.834;2023-05-08T13:30:25;40.08;;;33.95;;
76113;SDS011;64845;53.086;5.834;2023-05-08T13:32:50;39.65;;;32.97;;
76113;SDS011;64845;53.086;5.834;2023-05-08T13:35:16;37.22;;;33.15;;
76113;SDS011;64845;53.086;5.834;2023-05-08T13:37:43;43.42;;;35.47;;
76113;SDS011;64845;53.086;5.834;2023-05-08T13:40:08;41.75;;;34.42;;
76113;SDS011;64845;53.086;5.834;2023-05-08T13:42:35;40.60;;;32.85;;
76113;SDS011;64845;53.086;5.834;2023-05-08T13:45:01;40.50;;;33.20;;
76113;SDS011;64845;53.086;5.834;2023-05-08T13:47:27;38.60;;;32.17;;
76113;SDS011;64845;53.086;5.834;2023-05-08T13:49:52;40.00;;;32.78;;
76113;SDS011;64845;53.086;5.834;2023-05-08T13:52:17;47.08;;;34.33;;
76113;SDS011;64845;53.086;5.834;2023-05-08T13:54:43;43.22;;;30.92;;
76113;SDS011;64845;53.086;5.834;2023-05-08T13:57:08;37.60;;;29.98;;
76113;SDS011;64845;53.086;5.834;2023-05-08T13:59:34;34.08;;;27.75;;
76113;SDS011;64845;53.086;5.834;2023-05-08T14:02:00;33.72;;;27.52;;
76113;SDS011;64845;53.086;5.834;2023-05-08T14:04:25;29.88;;;25.92;;
76113;SDS011;64845;53.086;5.834;2023-05-08T14:06:51;28.60;;;23.38;;
76113;SDS011;64845;53.086;5.834;2023-05-08T14:09:16;27.13;;;23.38;;
76113;SDS011;64845;53.086;5.834;2023-05-08T14:11:42;28.30;;;22.92;;
76113;SDS011;64845;53.086;5.834;2023-05-08T14:14:07;29.45;;;22.92;;
76113;SDS011;64845;53.086;5.834;2023-05-08T14:16:33;27.13;;;22.67;;
76113;SDS011;64845;53.086;5.834;2023-05-08T14:18:58;28.98;;;23.38;;
76113;SDS011;64845;53.086;5.834;2023-05-08T14:21:23;27.60;;;22.75;;
76113;SDS011;64845;53.086;5.834;2023-05-08T14:23:49;26.08;;;21.92;;
76113;SDS011;64845;53.086;5.834;2023-05-08T14:26:15;25.23;;;19.25;;
76113;SDS011;64845;53.086;5.834;2023-05-08T14:28:40;26.98;;;21.83;;
76113;SDS011;64845;53.086;5.834;2023-05-08T14:31:06;29.85;;;24.42;;
76113;SDS011;64845;53.086;5.834;2023-05-08T14:33:31;32.70;;;25.30;;
76113;SDS011;64845;53.086;5.834;2023-05-08T14:35:57;31.05;;;24.25;;
76113;SDS011;64845;53.086;5.834;2023-05-08T14:38:22;31.27;;;24.35;;
76113;SDS011;64845;53.086;5.834;2023-05-08T14:40:48;33.95;;;24.70;;
76113;SDS011;64845;53.086;5.834;2023-05-08T14:43:15;28.42;;;24.02;;
76113;SDS011;64845;53.086;5.834;2023-05-08T14:45:41;30.77;;;25.42;;
76113;SDS011;64845;53.086;5.834;2023-05-08T14:48:06;31.77;;;24.45;;
76113;SDS011;64845;53.086;5.834;2023-05-08T14:50:31;26.20;;;22.67;;
76113;SDS011;64845;53.086;5.834;2023-05-08T14:52:57;30.13;;;22.65;;
76113;SDS011;64845;53.086;5.834;2023-05-08T14:55:22;26.73;;;22.48;;
76113;SDS011;64845;53.086;5.834;2023-05-08T14:57:48;31.88;;;24.38;;
76113;SDS011;64845;53.086;5.834;2023-05-08T15:00:14;30.08;;;25.23;;
76113;SDS011;64845;53.086;5.834;2023-05-08T15:02:41;29.63;;;21.23;;
76113;SDS011;64845;53.086;5.834;2023-05-08T15:05:07;26.17;;;20.60;;
76113;SDS011;64845;53.086;5.834;2023-05-08T15:07:33;27.48;;;21.83;;
76113;SDS011;64845;53.086;5.834;2023-05-08T15:09:59;29.63;;;21.98;;
76113;SDS011;64845;53.086;5.834;2023-05-08T15:12:25;28.05;;;22.10;;
76113;SDS011;64845;53.086;5.834;2023-05-08T15:14:50;25.42;;;21.33;;
76113;SDS011;64845;53.086;5.834;2023-05-08T15:17:15;27.40;;;20.35;;
76113;SDS011;64845;53.086;5.834;2023-05-08T15:19:41;27.83;;;20.88;;
76113;SDS011;64845;53.086;5.834;2023-05-08T15:22:07;31.17;;;24.30;;
76113;SDS011;64845;53.086;5.834;2023-05-08T15:24:32;36.97;;;28.95;;
76113;SDS011;64845;53.086;5.834;2023-05-08T15:26:58;37.38;;;26.50;;
76113;SDS011;64845;53.086;5.834;2023-05-08T15:29:24;35.28;;;24.67;;
76113;SDS011;64845;53.086;5.834;2023-05-08T15:31:50;34.42;;;24.30;;
76113;SDS011;64845;53.086;5.834;2023-05-08T15:34:16;31.00;;;22.48;;
76113;SDS011;64845;53.086;5.834;2023-05-08T15:36:41;24.15;;;18.08;;
76113;SDS011;64845;53.086;5.834;2023-05-08T15:39:06;20.10;;;15.23;;
76113;SDS011;64845;53.086;5.834;2023-05-08T15:41:32;25.67;;;17.05;;
76113;SDS011;64845;53.086;5.834;2023-05-08T15:43:58;23.73;;;18.63;;
76113;SDS011;64845;53.086;5.834;2023-05-08T15:46:23;28.45;;;19.73;;
76113;SDS011;64845;53.086;5.834;2023-05-08T15:48:49;26.67;;;19.00;;
76113;SDS011;64845;53.086;5.834;2023-05-08T15:51:14;30.98;;;22.15;;
76113;SDS011;64845;53.086;5.834;2023-05-08T15:53:40;36.22;;;23.90;;
76113;SDS011;64845;53.086;5.834;2023-05-08T15:56:05;31.15;;;22.98;;
76113;SDS011;64845;53.086;5.834;2023-05-08T15:58:31;35.95;;;26.30;;
76113;SDS011;64845;53.086;5.834;2023-05-08T16:00:56;33.67;;;22.42;;
76113;SDS011;64845;53.086;5.834;2023-05-08T16:03:22;35.13;;;24.17;;
76113;SDS011;64845;53.086;5.834;2023-05-08T16:05:48;33.95;;;23.45;;
76113;SDS011;64845;53.086;5.834;2023-05-08T16:08:13;32.53;;;23.13;;
76113;SDS011;64845;53.086;5.834;2023-05-08T16:10:39;36.35;;;25.35;;